createdAt,value
2019-05-03T00:00:16.300Z,99866.00
2019-05-03T00:03:04.671Z,99869.00
2019-05-03T00:05:48.136Z,99868.00
2019-05-03T00:08:21.694Z,99863.00
2019-05-03T00:10:53.389Z,99869.00
2019-05-03T00:13:24.965Z,99867.00
2019-05-03T00:16:15.543Z,99861.00
2019-05-03T00:18:47.399Z,99870.00
2019-05-03T00:21:18.937Z,99865.00
2019-05-03T00:23:52.262Z,99866.00
2019-05-03T00:26:25.217Z,99862.00
2019-05-03T00:28:56.899Z,99865.00
2019-05-03T00:31:28.417Z,99871.00
2019-05-03T00:34:04.597Z,99875.00
2019-05-03T00:36:49.532Z,99866.00
2019-05-03T00:39:35.385Z,99863.00
2019-05-03T00:42:07.043Z,99872.00
2019-05-03T00:44:38.643Z,99868.00
2019-05-03T00:47:10.325Z,99869.00
2019-05-03T00:49:42.562Z,99872.00
2019-05-03T00:52:32.665Z,99864.00
2019-05-03T00:55:15.675Z,99858.00
2019-05-03T00:57:37.779Z,99859.00
2019-05-03T01:00:12.247Z,99866.00
2019-05-03T01:02:45.510Z,99869.00
2019-05-03T04:47:09.151Z,99992.00
2019-05-03T04:49:40.866Z,99990.00
2019-05-03T04:52:12.582Z,99993.00
2019-05-03T04:54:52.639Z,99992.00
2019-05-03T05:42:26.762Z,100039.00
2019-05-03T05:44:58.377Z,100039.00
2019-05-03T07:08:29.054Z,100068.00
2019-05-03T07:11:34.721Z,100068.00
2019-05-03T07:15:05.277Z,100069.00
2019-05-03T07:17:36.983Z,100077.00
2019-05-03T07:20:08.783Z,100075.00
2019-05-03T07:22:40.289Z,100067.00
2019-05-03T07:25:12.006Z,100057.00
2019-05-03T07:27:45.324Z,100059.00
2019-05-03T07:30:17.430Z,100070.00
2019-05-03T07:32:54.544Z,100062.00
2019-05-03T07:35:26.260Z,100064.00
2019-05-03T07:38:00.859Z,100059.00
2019-05-03T07:40:35.642Z,100061.00
2019-05-03T07:43:10.474Z,100076.00
2019-05-03T07:45:42.021Z,100061.00
2019-05-03T07:48:15.033Z,100074.00
2019-05-03T07:50:46.928Z,100074.00
2019-05-03T07:53:18.507Z,100061.00
2019-05-03T07:56:18.226Z,100067.00
2019-05-03T07:59:00.581Z,100067.00
2019-05-03T08:01:32.765Z,100059.00
2019-05-03T08:04:05.470Z,100063.00
2019-05-03T08:06:39.004Z,100057.00
2019-05-03T08:09:11.076Z,100065.00
2019-05-03T08:11:44.797Z,100056.00
2019-05-03T08:14:18.284Z,100061.00
2019-05-03T08:16:49.672Z,100073.00
2019-05-03T08:19:24.391Z,100069.00
2019-05-03T08:21:56.617Z,100056.00
2019-05-03T08:24:28.375Z,100066.00
2019-05-03T08:27:00.083Z,100068.00
2019-05-03T08:29:31.812Z,100081.00
2019-05-03T08:32:15.442Z,100076.00
2019-05-03T08:35:04.872Z,100065.00
2019-05-03T08:37:54.687Z,100067.00
2019-05-03T08:40:45.560Z,100083.00
2019-05-03T08:43:17.338Z,100064.00
2019-05-03T08:45:48.890Z,100077.00
2019-05-03T08:48:20.445Z,100081.00
2019-05-03T08:50:51.948Z,100078.00
2019-05-03T08:53:25.692Z,100083.00
2019-05-03T08:55:57.001Z,100092.00
2019-05-03T08:58:28.801Z,100091.00
2019-05-03T09:01:00.453Z,100074.00
2019-05-03T09:03:32.215Z,100086.00
2019-05-03T09:06:04.641Z,100076.00
2019-05-03T09:08:36.367Z,100060.00
2019-05-03T09:11:15.406Z,100065.00
2019-05-03T09:14:07.497Z,100066.00
2019-05-03T09:16:39.085Z,100088.00
2019-05-03T09:19:10.812Z,100095.00
2019-05-03T09:21:42.424Z,100101.00
2019-05-03T09:24:15.163Z,100106.00
2019-05-03T09:26:48.963Z,100097.00
2019-05-03T09:29:20.617Z,100101.00
2019-05-03T09:31:52.215Z,100095.00
2019-05-03T09:34:25.666Z,100098.00
2019-05-03T09:36:57.468Z,100096.00
2019-05-03T09:39:29.018Z,100091.00
2019-05-03T09:42:00.721Z,100093.00
2019-05-03T09:44:35.060Z,100088.00
2019-05-03T09:47:06.821Z,100078.00
2019-05-03T09:49:38.457Z,100082.00
2019-05-03T09:52:10.139Z,100077.00
2019-05-03T09:54:47.155Z,100069.00
2019-05-03T09:57:18.976Z,100067.00
2019-05-03T09:59:57.121Z,100064.00
2019-05-03T10:02:24.700Z,100080.00
2019-05-03T10:04:56.509Z,100076.00
2019-05-03T10:07:28.347Z,100065.00
2019-05-03T10:09:59.868Z,100074.00
2019-05-03T10:12:31.727Z,100074.00
2019-05-03T10:15:06.333Z,100087.00
2019-05-03T10:17:45.947Z,100088.00
2019-05-03T10:20:19.117Z,100083.00
2019-05-03T10:22:50.748Z,100076.00
2019-05-03T10:25:24.364Z,100074.00
2019-05-03T10:27:55.773Z,100081.00
2019-05-03T10:30:28.531Z,100075.00
2019-05-03T10:33:26.094Z,100084.00
2019-05-03T10:35:57.993Z,100106.00
2019-05-03T10:38:29.523Z,100095.00
2019-05-03T10:41:01.274Z,100084.00
2019-05-03T10:43:35.309Z,100077.00
2019-05-03T10:46:07.207Z,100063.00
2019-05-03T10:48:40.450Z,100081.00
2019-05-03T10:51:12.017Z,100066.00
2019-05-03T10:53:47.589Z,100073.00
2019-05-03T10:56:23.690Z,100048.00
2019-05-03T10:59:12.974Z,100052.00
2019-05-03T11:02:03.523Z,100064.00
2019-05-03T11:04:37.417Z,100056.00
2019-05-03T11:07:08.973Z,100062.00
2019-05-03T11:09:49.642Z,100056.00
2019-05-03T11:12:15.786Z,100053.00
2019-05-03T11:14:47.601Z,100048.00
2019-05-03T11:17:19.401Z,100063.00
2019-05-03T11:19:50.962Z,100058.00
2019-05-03T11:22:22.671Z,100048.00
2019-05-03T11:24:54.767Z,100049.00
2019-05-03T11:27:32.609Z,100050.00
2019-05-03T11:30:04.988Z,100048.00
2019-05-03T11:32:55.661Z,100045.00
2019-05-03T11:35:51.327Z,100052.00
2019-05-03T11:38:31.871Z,100060.00
2019-05-03T11:51:52.298Z,100064.00
2019-05-03T11:54:26.946Z,100110.00
2019-05-03T11:57:05.059Z,100086.00
2019-05-03T11:59:37.101Z,100068.00
2019-05-03T12:02:16.667Z,100086.00
2019-05-03T12:04:48.962Z,100077.00
2019-05-03T12:07:39.096Z,100076.00
2019-05-03T12:10:31.266Z,100085.00
2019-05-03T12:12:44.571Z,100073.00
2019-05-03T12:15:16.823Z,100059.00
2019-05-03T12:17:55.537Z,100061.00
2019-05-03T12:20:29.519Z,100057.00
2019-05-03T12:23:01.585Z,100057.00
2019-05-03T12:25:36.157Z,100052.00
2019-05-03T12:28:07.271Z,100065.00
2019-05-03T12:30:39.068Z,100056.00
2019-05-03T12:33:10.708Z,100052.00
2019-05-03T12:35:46.179Z,100078.00
2019-05-03T12:38:18.244Z,100083.00
2019-05-03T12:40:50.408Z,100074.00
2019-05-03T12:43:22.283Z,100069.00
2019-05-03T12:45:53.946Z,100082.00
2019-05-03T12:48:47.532Z,100078.00
2019-05-03T12:51:19.030Z,100075.00
2019-05-03T12:53:55.183Z,100068.00
2019-05-03T12:56:32.834Z,100070.00
2019-05-03T12:59:18.090Z,100050.00
2019-05-03T13:02:15.534Z,100057.00
2019-05-03T13:04:47.884Z,100052.00
2019-05-03T13:07:28.515Z,100045.00
2019-05-03T13:10:00.075Z,100046.00
2019-05-03T13:12:34.718Z,100034.00
2019-05-03T13:15:06.441Z,100022.00
2019-05-03T13:17:38.534Z,100040.00
2019-05-03T13:20:14.269Z,100023.00
2019-05-03T13:22:46.077Z,100065.00
2019-05-03T13:25:18.108Z,100030.00
2019-05-03T13:27:49.847Z,100036.00
2019-05-03T13:30:22.112Z,100034.00
2019-05-03T13:32:54.964Z,100030.00
2019-05-03T13:35:29.812Z,100019.00
2019-05-03T13:38:01.673Z,100026.00
2019-05-03T13:40:35.949Z,100025.00
2019-05-03T13:43:08.662Z,100026.00
2019-05-03T13:45:40.648Z,100020.00
2019-05-03T13:48:15.481Z,100026.00
2019-05-03T13:50:45.885Z,100033.00
2019-05-03T13:53:17.534Z,100031.00
2019-05-03T13:55:49.909Z,100040.00
2019-05-03T13:58:21.547Z,100015.00
2019-05-03T14:00:54.913Z,100024.00
2019-05-03T14:03:29.806Z,100018.00
2019-05-03T14:06:07.652Z,100023.00
2019-05-03T14:08:36.780Z,100012.00
2019-05-03T14:11:09.925Z,100015.00
2019-05-03T14:13:41.626Z,100009.00
2019-05-03T14:16:14.425Z,100012.00
2019-05-03T14:18:48.426Z,100005.00
2019-05-03T14:21:35.244Z,100000.00
2019-05-03T14:24:10.247Z,99990.00
2019-05-03T14:26:44.772Z,99985.00
2019-05-03T14:29:16.501Z,99979.00
2019-05-03T14:31:48.304Z,99985.00
2019-05-03T14:34:20.772Z,99974.00
2019-05-03T14:36:52.417Z,99983.00
2019-05-03T14:39:25.361Z,99982.00
2019-05-03T14:41:57.143Z,99992.00
2019-05-03T14:44:28.663Z,99965.00
2019-05-03T14:47:00.453Z,99975.00
2019-05-03T14:49:34.636Z,99966.00
2019-05-03T14:52:06.422Z,99972.00
2019-05-03T14:54:40.176Z,99964.00
2019-05-03T14:57:26.593Z,99962.00
2019-05-03T15:00:10.660Z,99964.00
2019-05-03T15:02:58.012Z,99954.00
2019-05-03T15:05:28.993Z,99951.00
2019-05-03T15:08:00.726Z,99960.00
2019-05-03T15:10:34.879Z,99948.00
2019-05-03T15:13:06.467Z,99946.00
2019-05-03T15:15:38.027Z,99938.00
2019-05-03T15:18:09.640Z,99938.00
2019-05-03T15:20:41.389Z,99928.00
2019-05-03T15:23:14.680Z,99933.00
2019-05-03T15:25:46.976Z,99936.00
2019-05-03T15:28:25.122Z,99924.00
2019-05-03T15:30:56.911Z,99935.00
2019-05-03T15:33:28.580Z,99938.00
2019-05-03T15:36:04.785Z,99937.00
2019-05-03T15:38:44.616Z,99922.00
2019-05-03T15:41:17.778Z,99931.00
2019-05-03T15:43:55.539Z,99939.00
2019-05-03T15:46:44.627Z,99942.00
2019-05-03T15:49:16.149Z,99931.00
2019-05-03T15:51:47.845Z,99933.00
2019-05-03T15:54:19.442Z,99935.00
2019-05-03T15:56:51.299Z,99937.00
2019-05-03T15:59:24.430Z,99928.00
2019-05-03T16:02:01.482Z,99927.00
2019-05-03T16:04:35.703Z,99927.00
2019-05-03T16:07:07.336Z,99927.00
2019-05-03T16:09:38.987Z,99924.00
2019-05-03T16:12:10.628Z,99929.00
2019-05-03T16:14:42.193Z,99928.00
2019-05-03T16:17:14.729Z,99926.00
2019-05-03T16:19:47.748Z,99924.00
2019-05-03T16:22:19.575Z,99922.00
2019-05-03T16:24:51.331Z,99920.00
2019-05-03T16:27:47.943Z,99907.00
2019-05-03T16:30:36.461Z,99924.00
2019-05-03T16:33:22.908Z,99899.00
2019-05-03T16:35:49.583Z,99909.00
2019-05-03T16:38:47.939Z,99910.00
2019-05-03T16:41:19.371Z,99902.00
2019-05-03T16:43:51.410Z,99909.00
2019-05-03T16:46:23.106Z,99912.00
2019-05-03T16:48:54.697Z,99902.00
2019-05-03T16:51:26.341Z,99905.00
2019-05-03T16:53:58.197Z,99909.00
2019-05-03T16:56:29.993Z,99897.00
2019-05-03T16:59:01.591Z,99911.00
2019-05-03T17:01:35.183Z,99907.00
2019-05-03T17:04:46.050Z,99891.00
2019-05-03T17:07:39.647Z,99904.00
2019-05-03T17:10:25.521Z,99898.00
2019-05-03T17:12:57.268Z,99900.00
2019-05-03T17:15:29.586Z,99910.00
2019-05-03T17:18:01.479Z,99897.00
2019-05-03T17:20:34.720Z,99899.00
2019-05-03T17:23:07.033Z,99923.00
2019-05-03T17:25:39.892Z,99918.00
2019-05-03T17:28:11.641Z,99927.00
2019-05-03T17:30:44.552Z,99927.00
2019-05-03T17:33:16.853Z,99931.00
2019-05-03T17:35:48.811Z,99930.00
2019-05-03T17:38:20.611Z,99928.00
2019-05-03T17:41:01.277Z,99923.00
2019-05-03T17:43:36.827Z,99926.00
2019-05-03T17:46:10.123Z,99917.00
2019-05-03T17:48:41.897Z,99917.00
2019-05-03T17:51:32.415Z,99911.00
2019-05-03T17:54:26.983Z,99913.00
2019-05-03T17:57:15.086Z,99907.00
2019-05-03T17:59:51.276Z,99916.00
2019-05-03T18:02:29.025Z,99926.00
2019-05-03T18:05:19.601Z,99921.00
2019-05-03T18:08:18.951Z,99910.00
2019-05-03T18:10:56.872Z,99924.00
2019-05-03T18:13:28.552Z,99899.00
2019-05-03T18:16:00.223Z,99894.00
2019-05-03T18:18:31.827Z,99893.00
2019-05-03T18:21:04.792Z,99901.00
2019-05-03T18:23:36.638Z,99898.00
2019-05-03T18:26:08.308Z,99895.00
2019-05-03T18:28:40.075Z,99889.00
2019-05-03T18:31:11.606Z,99899.00
2019-05-03T18:33:44.277Z,99897.00
2019-05-03T18:36:16.291Z,99897.00
2019-05-03T18:38:48.054Z,99899.00
2019-05-03T18:41:19.635Z,99908.00
2019-05-03T18:44:05.089Z,99925.00
2019-05-03T18:46:55.818Z,99917.00
2019-05-03T18:49:27.456Z,99936.00
2019-05-03T18:51:59.257Z,99930.00
2019-05-03T18:54:31.053Z,99947.00
2019-05-03T18:57:02.678Z,99944.00
2019-05-03T18:59:34.303Z,99943.00
2019-05-03T19:02:06.101Z,99960.00
2019-05-03T19:04:51.808Z,99941.00
2019-05-03T19:07:48.733Z,99948.00
2019-05-03T19:10:38.652Z,99956.00
2019-05-03T19:13:20.303Z,99945.00
2019-05-03T19:15:52.105Z,99939.00
2019-05-03T19:18:31.850Z,99935.00
2019-05-03T19:21:04.600Z,99936.00
2019-05-03T19:23:36.398Z,99930.00
2019-05-03T19:26:08.073Z,99913.00
2019-05-03T19:28:40.008Z,99914.00
2019-05-03T19:31:12.039Z,99910.00
2019-05-03T19:33:45.662Z,99913.00
2019-05-03T19:36:17.395Z,99905.00
2019-05-03T19:38:49.148Z,99913.00
2019-05-03T19:41:20.936Z,99905.00
2019-05-03T19:43:52.616Z,99905.00
2019-05-03T19:46:24.841Z,99898.00
2019-05-03T19:48:56.734Z,99898.00
2019-05-03T19:51:28.477Z,99892.00
2019-05-03T19:54:00.128Z,99894.00
2019-05-03T19:56:31.840Z,99894.00
2019-05-03T19:59:07.833Z,99896.00
2019-05-03T20:01:59.904Z,99894.00
2019-05-03T20:04:57.673Z,99904.00
2019-05-03T20:07:38.572Z,99896.00
2019-05-03T20:10:10.904Z,99898.00
2019-05-03T20:12:42.639Z,99896.00
2019-05-03T20:15:16.425Z,99888.00
2019-05-03T20:17:56.948Z,99889.00
2019-05-03T20:20:21.544Z,99890.00
2019-05-03T20:22:54.839Z,99888.00
2019-05-03T20:25:26.594Z,99892.00
2019-05-03T20:27:58.352Z,99900.00
2019-05-03T20:30:29.903Z,99891.00
2019-05-03T20:33:01.565Z,99891.00
2019-05-03T20:35:35.613Z,99891.00
2019-05-03T20:38:06.391Z,99884.00
2019-05-03T20:40:38.146Z,99888.00
2019-05-03T20:43:30.196Z,99875.00
2019-05-03T20:46:10.603Z,99882.00
2019-05-03T20:48:44.762Z,99880.00
2019-05-03T20:51:22.836Z,99880.00
2019-05-03T20:53:55.330Z,99874.00
2019-05-03T20:56:27.240Z,99864.00
2019-05-03T20:58:58.860Z,99868.00
2019-05-03T21:01:30.910Z,99864.00
2019-05-03T21:04:04.698Z,99870.00
2019-05-03T21:06:36.142Z,99865.00
2019-05-03T21:09:09.881Z,99859.00
2019-05-03T21:11:44.861Z,99865.00
2019-05-03T21:14:16.877Z,99872.00
2019-05-03T21:17:16.395Z,99881.00
2019-05-03T21:20:16.136Z,99870.00
2019-05-03T21:22:49.837Z,99871.00
2019-05-03T21:25:29.459Z,99868.00
2019-05-03T21:28:04.677Z,99868.00
2019-05-03T21:30:36.605Z,99875.00
2019-05-03T21:33:08.246Z,99877.00
2019-05-03T21:35:42.009Z,99869.00
2019-05-03T21:38:14.654Z,99865.00
2019-05-03T21:40:46.760Z,99869.00
2019-05-03T21:43:18.463Z,99861.00
2019-05-03T21:45:58.452Z,99869.00
2019-05-03T21:49:08.484Z,99864.00
2019-05-03T21:51:40.204Z,99853.00
2019-05-03T21:54:11.909Z,99854.00
2019-05-03T21:56:44.702Z,99851.00
2019-05-03T21:59:16.901Z,99851.00
2019-05-03T22:01:49.104Z,99847.00
2019-05-03T22:04:21.083Z,99845.00
2019-05-03T22:06:54.756Z,99848.00
2019-05-03T22:09:29.081Z,99843.00
2019-05-03T22:12:00.666Z,99848.00
2019-05-03T22:14:51.213Z,99840.00
2019-05-03T22:17:44.657Z,99840.00
2019-05-03T22:20:31.870Z,99834.00
2019-05-03T22:23:18.888Z,99847.00
2019-05-03T22:25:52.215Z,99845.00
2019-05-03T22:28:24.639Z,99844.00
2019-05-03T22:30:59.469Z,99840.00
2019-05-03T22:33:31.272Z,99826.00
2019-05-03T22:36:08.521Z,99836.00
2019-05-03T22:38:38.461Z,99836.00
2019-05-03T22:41:10.433Z,99830.00
2019-05-03T22:43:42.040Z,99828.00
2019-05-03T22:46:14.541Z,99827.00
2019-05-03T22:48:46.631Z,99825.00
2019-05-03T22:51:18.483Z,99826.00
2019-05-03T22:53:50.079Z,99821.00
2019-05-03T22:56:24.962Z,99826.00
2019-05-03T22:58:56.768Z,99812.00
2019-05-03T23:01:28.529Z,99821.00
2019-05-03T23:04:00.499Z,99820.00
2019-05-03T23:06:32.413Z,99822.00
2019-05-03T23:09:06.283Z,99810.00
2019-05-03T23:11:38.060Z,99803.00
2019-05-03T23:14:09.867Z,99811.00
2019-05-03T23:16:44.821Z,99802.00
2019-05-03T23:19:16.869Z,99798.00
2019-05-03T23:22:07.333Z,99799.00
2019-05-03T23:24:39.117Z,99804.00
2019-05-03T23:27:11.118Z,99803.00
2019-05-03T23:29:42.839Z,99799.00
2019-05-03T23:32:17.643Z,99811.00
2019-05-03T23:34:49.217Z,99824.00
2019-05-03T23:37:21.151Z,99805.00
2019-05-03T23:39:55.000Z,99809.00
2019-05-03T23:42:26.506Z,99798.00
2019-05-03T23:44:58.139Z,99793.00
2019-05-03T23:47:40.548Z,99793.00
2019-05-03T23:50:16.546Z,99786.00
2019-05-03T23:52:48.405Z,99789.00
2019-05-03T23:55:26.090Z,99788.00
2019-05-03T23:58:00.460Z,99785.00
